sensor_id;sensor_type;location;lat;lon;timestamp;pressure;altitude;pressure_sealevel;temperature;humidity
26531;BME280;14201;43.188;24.160;2023-10-08T00:00:25;99902.13;;;12.74;66.31
26531;BME280;14201;43.188;24.160;2023-10-08T00:03:12;99905.66;;;12.76;66.45
26531;BME280;14201;43.188;24.160;2023-10-08T00:05:38;99898.72;;;12.77;66.83
26531;BME280;14201;43.188;24.160;2023-10-08T00:08:05;99892.00;;;12.84;66.14
26531;BME280;14201;43.188;24.160;2023-10-08T00:10:39;99896.56;;;12.89;65.73
26531;BME280;14201;43.188;24.160;2023-10-08T00:13:06;99897.81;;;12.99;64.97
26531;BME280;14201;43.188;24.160;2023-10-08T00:15:40;99890.53;;;13.14;64.54
26531;BME280;14201;43.188;24.160;2023-10-08T00:18:21;99892.56;;;13.23;64.16
26531;BME280;14201;43.188;24.160;2023-10-08T00:20:48;99885.00;;;13.31;64.21
26531;BME280;14201;43.188;24.160;2023-10-08T00:23:21;99888.50;;;13.31;64.10
26531;BME280;14201;43.188;24.160;2023-10-08T00:25:47;99881.66;;;13.35;63.48
26531;BME280;14201;43.188;24.160;2023-10-08T00:28:15;99885.16;;;13.35;63.55
26531;BME280;14201;43.188;24.160;2023-10-08T00:30:42;99887.78;;;13.35;63.48
26531;BME280;14201;43.188;24.160;2023-10-08T00:33:08;99882.78;;;13.42;63.00
26531;BME280;14201;43.188;24.160;2023-10-08T00:35:40;99881.03;;;13.18;63.71
26531;BME280;14201;43.188;24.160;2023-10-08T00:38:09;99890.84;;;12.99;64.32
26531;BME280;14201;43.188;24.160;2023-10-08T00:40:45;99879.31;;;12.94;64.73
26531;BME280;14201;43.188;24.160;2023-10-08T00:43:28;99882.00;;;12.96;65.03
26531;BME280;14201;43.188;24.160;2023-10-08T00:45:53;99883.16;;;12.80;65.27
26531;BME280;14201;43.188;24.160;2023-10-08T00:48:19;99874.97;;;12.71;65.59
26531;BME280;14201;43.188;24.160;2023-10-08T00:50:53;99881.44;;;12.80;65.17
26531;BME280;14201;43.188;24.160;2023-10-08T00:53:21;99879.97;;;12.65;66.31
26531;BME280;14201;43.188;24.160;2023-10-08T00:55:48;99869.09;;;12.76;65.08
26531;BME280;14201;43.188;24.160;2023-10-08T00:58:29;99868.50;;;12.85;64.55
26531;BME280;14201;43.188;24.160;2023-10-08T01:00:54;99865.41;;;12.95;64.76
26531;BME280;14201;43.188;24.160;2023-10-08T01:03:28;99870.25;;;13.09;64.17
26531;BME280;14201;43.188;24.160;2023-10-08T01:05:54;99877.66;;;13.20;62.92
26531;BME280;14201;43.188;24.160;2023-10-08T01:08:19;99871.56;;;13.22;63.13
26531;BME280;14201;43.188;24.160;2023-10-08T01:11:15;99875.13;;;13.24;63.36
26531;BME280;14201;43.188;24.160;2023-10-08T01:13:41;99869.38;;;13.32;62.91
26531;BME280;14201;43.188;24.160;2023-10-08T01:16:10;99872.88;;;13.33;62.63
26531;BME280;14201;43.188;24.160;2023-10-08T01:18:36;99865.41;;;13.44;62.17
26531;BME280;14201;43.188;24.160;2023-10-08T01:21:02;99869.97;;;13.49;62.23
26531;BME280;14201;43.188;24.160;2023-10-08T01:23:33;99869.16;;;13.52;61.37
26531;BME280;14201;43.188;24.160;2023-10-08T01:25:58;99864.13;;;13.58;61.27
26531;BME280;14201;43.188;24.160;2023-10-08T01:28:35;99865.03;;;13.58;61.67
26531;BME280;14201;43.188;24.160;2023-10-08T01:31:01;99864.94;;;13.55;61.32
26531;BME280;14201;43.188;24.160;2023-10-08T01:33:29;99864.81;;;13.52;61.38
26531;BME280;14201;43.188;24.160;2023-10-08T01:36:02;99865.81;;;13.56;61.59
26531;BME280;14201;43.188;24.160;2023-10-08T01:38:29;99861.66;;;13.63;61.19
26531;BME280;14201;43.188;24.160;2023-10-08T01:40:55;99862.78;;;13.69;60.65
26531;BME280;14201;43.188;24.160;2023-10-08T01:43:21;99864.41;;;13.66;60.92
26531;BME280;14201;43.188;24.160;2023-10-08T01:45:47;99860.41;;;13.77;59.88
26531;BME280;14201;43.188;24.160;2023-10-08T01:48:17;99861.09;;;13.71;60.16
26531;BME280;14201;43.188;24.160;2023-10-08T01:50:55;99848.16;;;13.76;59.64
26531;BME280;14201;43.188;24.160;2023-10-08T01:53:26;99854.06;;;13.70;60.04
26531;BME280;14201;43.188;24.160;2023-10-08T01:55:52;99856.34;;;13.34;61.55
26531;BME280;14201;43.188;24.160;2023-10-08T01:58:19;99854.88;;;13.42;61.56
26531;BME280;14201;43.188;24.160;2023-10-08T02:00:45;99849.59;;;13.41;60.71
26531;BME280;14201;43.188;24.160;2023-10-08T02:03:11;99848.16;;;13.25;61.18
26531;BME280;14201;43.188;24.160;2023-10-08T02:05:37;99849.28;;;13.31;61.07
26531;BME280;14201;43.188;24.160;2023-10-08T02:08:04;99848.25;;;13.28;60.52
26531;BME280;14201;43.188;24.160;2023-10-08T02:10:31;99837.19;;;13.35;61.25
26531;BME280;14201;43.188;24.160;2023-10-08T02:12:58;99851.59;;;13.24;62.10
26531;BME280;14201;43.188;24.160;2023-10-08T02:15:23;99849.22;;;13.06;62.47
26531;BME280;14201;43.188;24.160;2023-10-08T02:17:49;99848.63;;;13.13;62.53
26531;BME280;14201;43.188;24.160;2023-10-08T02:20:14;99845.44;;;12.97;62.82
26531;BME280;14201;43.188;24.160;2023-10-08T02:22:41;99839.06;;;12.89;63.51
26531;BME280;14201;43.188;24.160;2023-10-08T02:25:06;99842.38;;;12.85;63.16
26531;BME280;14201;43.188;24.160;2023-10-08T02:27:34;99840.25;;;12.75;63.95
26531;BME280;14201;43.188;24.160;2023-10-08T02:29:59;99835.09;;;12.52;63.83
26531;BME280;14201;43.188;24.160;2023-10-08T02:32:24;99837.34;;;12.43;64.89
26531;BME280;14201;43.188;24.160;2023-10-08T02:34:50;99819.78;;;12.39;64.74
26531;BME280;14201;43.188;24.160;2023-10-08T02:37:18;99825.97;;;12.41;64.69
26531;BME280;14201;43.188;24.160;2023-10-08T02:39:44;99835.78;;;12.48;64.73
26531;BME280;14201;43.188;24.160;2023-10-08T02:42:10;99835.97;;;12.53;63.63
26531;BME280;14201;43.188;24.160;2023-10-08T02:44:39;99828.59;;;12.65;62.83
26531;BME280;14201;43.188;24.160;2023-10-08T02:47:08;99828.13;;;12.77;62.44
26531;BME280;14201;43.188;24.160;2023-10-08T02:49:33;99825.88;;;12.86;62.80
26531;BME280;14201;43.188;24.160;2023-10-08T02:52:00;99822.38;;;12.86;62.51
26531;BME280;14201;43.188;24.160;2023-10-08T02:54:25;99825.94;;;12.88;62.71
26531;BME280;14201;43.188;24.160;2023-10-08T02:56:57;99829.03;;;12.77;62.84
26531;BME280;14201;43.188;24.160;2023-10-08T02:59:23;99816.84;;;12.54;63.44
26531;BME280;14201;43.188;24.160;2023-10-08T03:01:50;99816.59;;;12.70;63.71
26531;BME280;14201;43.188;24.160;2023-10-08T03:04:17;99819.19;;;12.70;63.79
26531;BME280;14201;43.188;24.160;2023-10-08T03:06:44;99811.16;;;12.64;63.37
26531;BME280;14201;43.188;24.160;2023-10-08T03:09:11;99819.44;;;12.54;62.99
26531;BME280;14201;43.188;24.160;2023-10-08T03:11:39;99813.56;;;12.59;63.25
26531;BME280;14201;43.188;24.160;2023-10-08T03:14:04;99810.59;;;12.50;63.33
26531;BME280;14201;43.188;24.160;2023-10-08T03:16:30;99806.66;;;12.15;64.59
26531;BME280;14201;43.188;24.160;2023-10-08T03:19:02;99808.59;;;11.96;65.42
26531;BME280;14201;43.188;24.160;2023-10-08T03:21:31;99809.34;;;12.16;64.98
26531;BME280;14201;43.188;24.160;2023-10-08T03:24:02;99806.19;;;12.25;64.09
26531;BME280;14201;43.188;24.160;2023-10-08T03:26:37;99801.22;;;12.31;64.02
26531;BME280;14201;43.188;24.160;2023-10-08T03:29:04;99798.91;;;12.39;63.49
26531;BME280;14201;43.188;24.160;2023-10-08T03:31:34;99801.72;;;12.45;63.10
26531;BME280;14201;43.188;24.160;2023-10-08T03:34:11;99805.38;;;12.50;63.01
26531;BME280;14201;43.188;24.160;2023-10-08T03:36:41;99800.69;;;12.17;63.95
26531;BME280;14201;43.188;24.160;2023-10-08T03:39:15;99803.75;;;12.30;64.00
26531;BME280;14201;43.188;24.160;2023-10-08T03:41:41;99805.06;;;12.41;63.97
26531;BME280;14201;43.188;24.160;2023-10-08T03:44:07;99801.09;;;12.28;63.14
26531;BME280;14201;43.188;24.160;2023-10-08T03:46:39;99807.03;;;12.01;64.12
26531;BME280;14201;43.188;24.160;2023-10-08T03:49:10;99805.28;;;12.25;62.94
26531;BME280;14201;43.188;24.160;2023-10-08T03:51:48;99811.41;;;12.25;63.12
26531;BME280;14201;43.188;24.160;2023-10-08T03:54:16;99810.53;;;12.25;63.41
26531;BME280;14201;43.188;24.160;2023-10-08T03:56:43;99805.44;;;12.28;63.25
26531;BME280;14201;43.188;24.160;2023-10-08T03:59:14;99796.03;;;12.33;62.79
26531;BME280;14201;43.188;24.160;2023-10-08T04:01:42;99805.81;;;12.38;62.77
26531;BME280;14201;43.188;24.160;2023-10-08T04:04:08;99800.66;;;12.40;62.57
26531;BME280;14201;43.188;24.160;2023-10-08T04:06:42;99799.13;;;12.45;62.29
26531;BME280;14201;43.188;24.160;2023-10-08T04:09:16;99798.34;;;12.48;62.13
26531;BME280;14201;43.188;24.160;2023-10-08T04:11:51;99797.22;;;12.41;62.46
26531;BME280;14201;43.188;24.160;2023-10-08T04:14:20;99807.13;;;12.50;61.69
26531;BME280;14201;43.188;24.160;2023-10-08T04:16:46;99799.25;;;12.26;62.12
26531;BME280;14201;43.188;24.160;2023-10-08T04:19:12;99793.25;;;12.06;63.19
26531;BME280;14201;43.188;24.160;2023-10-08T04:21:38;99802.31;;;12.15;62.90
26531;BME280;14201;43.188;24.160;2023-10-08T04:24:06;99789.41;;;12.18;62.56
26531;BME280;14201;43.188;24.160;2023-10-08T04:26:33;99785.28;;;12.25;62.50
26531;BME280;14201;43.188;24.160;2023-10-08T04:28:59;99797.31;;;12.20;62.50
26531;BME280;14201;43.188;24.160;2023-10-08T04:31:28;99793.81;;;12.19;61.56
26531;BME280;14201;43.188;24.160;2023-10-08T04:34:02;99801.56;;;12.18;61.88
26531;BME280;14201;43.188;24.160;2023-10-08T04:36:34;99798.34;;;12.25;61.98
26531;BME280;14201;43.188;24.160;2023-10-08T04:39:03;99798.47;;;12.06;62.68
26531;BME280;14201;43.188;24.160;2023-10-08T04:41:39;99793.50;;;12.12;63.07
26531;BME280;14201;43.188;24.160;2023-10-08T04:44:08;99790.78;;;12.09;62.97
26531;BME280;14201;43.188;24.160;2023-10-08T04:46:39;99797.34;;;11.99;63.73
26531;BME280;14201;43.188;24.160;2023-10-08T04:49:04;99791.59;;;12.08;63.39
26531;BME280;14201;43.188;24.160;2023-10-08T04:51:42;99795.72;;;12.25;62.86
26531;BME280;14201;43.188;24.160;2023-10-08T04:54:11;99791.28;;;12.45;61.93
26531;BME280;14201;43.188;24.160;2023-10-08T04:56:42;99792.59;;;12.58;62.08
26531;BME280;14201;43.188;24.160;2023-10-08T04:59:07;99796.22;;;12.86;60.13
26531;BME280;14201;43.188;24.160;2023-10-08T05:01:36;99796.72;;;12.99;59.11
26531;BME280;14201;43.188;24.160;2023-10-08T05:04:24;99792.84;;;13.14;58.39
26531;BME280;14201;43.188;24.160;2023-10-08T05:06:52;99791.28;;;13.19;58.69
26531;BME280;14201;43.188;24.160;2023-10-08T05:09:26;99790.97;;;13.35;57.85
26531;BME280;14201;43.188;24.160;2023-10-08T05:12:04;99785.38;;;13.50;57.74
26531;BME280;14201;43.188;24.160;2023-10-08T05:14:48;99791.25;;;13.70;57.28
26531;BME280;14201;43.188;24.160;2023-10-08T05:17:43;99790.84;;;13.85;56.29
26531;BME280;14201;43.188;24.160;2023-10-08T05:20:15;99787.84;;;14.00;54.99
26531;BME280;14201;43.188;24.160;2023-10-08T05:22:59;99779.91;;;14.27;54.12
26531;BME280;14201;43.188;24.160;2023-10-08T05:25:45;99782.19;;;14.45;53.91
26531;BME280;14201;43.188;24.160;2023-10-08T05:28:35;99778.50;;;14.69;53.45
26531;BME280;14201;43.188;24.160;2023-10-08T05:31:18;99786.91;;;14.87;54.12
26531;BME280;14201;43.188;24.160;2023-10-08T05:34:01;99774.59;;;15.18;52.50
26531;BME280;14201;43.188;24.160;2023-10-08T05:36:43;99782.13;;;15.41;53.25
26531;BME280;14201;43.188;24.160;2023-10-08T05:39:16;99783.34;;;15.53;53.26
26531;BME280;14201;43.188;24.160;2023-10-08T05:41:55;99798.03;;;15.80;52.04
26531;BME280;14201;43.188;24.160;2023-10-08T05:44:38;99784.47;;;16.00;52.65
26531;BME280;14201;43.188;24.160;2023-10-08T05:47:05;99783.28;;;16.25;52.47
26531;BME280;14201;43.188;24.160;2023-10-08T05:49:50;99785.56;;;16.50;50.42
26531;BME280;14201;43.188;24.160;2023-10-08T05:52:38;99782.38;;;16.67;47.92
26531;BME280;14201;43.188;24.160;2023-10-08T05:55:18;99788.94;;;16.87;48.12
26531;BME280;14201;43.188;24.160;2023-10-08T05:57:54;99789.09;;;16.95;47.38
26531;BME280;14201;43.188;24.160;2023-10-08T06:00:42;99784.53;;;17.34;48.00
26531;BME280;14201;43.188;24.160;2023-10-08T06:03:13;99786.63;;;17.56;45.98
26531;BME280;14201;43.188;24.160;2023-10-08T06:06:08;99775.31;;;17.60;46.16
26531;BME280;14201;43.188;24.160;2023-10-08T06:08:39;99777.97;;;17.63;45.52
26531;BME280;14201;43.188;24.160;2023-10-08T06:11:23;99769.34;;;17.74;45.52
26531;BME280;14201;43.188;24.160;2023-10-08T06:14:07;99751.63;;;17.60;45.95
26531;BME280;14201;43.188;24.160;2023-10-08T06:16:41;99765.00;;;17.74;45.40
26531;BME280;14201;43.188;24.160;2023-10-08T06:19:09;99757.34;;;17.91;45.00
26531;BME280;14201;43.188;24.160;2023-10-08T06:21:39;99763.72;;;18.05;45.05
26531;BME280;14201;43.188;24.160;2023-10-08T06:24:07;99756.81;;;18.15;44.64
26531;BME280;14201;43.188;24.160;2023-10-08T06:26:39;99757.06;;;18.35;45.31
26531;BME280;14201;43.188;24.160;2023-10-08T06:29:11;99751.03;;;18.42;44.89
26531;BME280;14201;43.188;24.160;2023-10-08T06:31:57;99747.75;;;18.65;44.72
26531;BME280;14201;43.188;24.160;2023-10-08T06:34:23;99743.69;;;18.93;45.03
26531;BME280;14201;43.188;24.160;2023-10-08T06:36:53;99743.03;;;19.14;44.93
26531;BME280;14201;43.188;24.160;2023-10-08T06:39:23;99746.78;;;19.41;44.13
26531;BME280;14201;43.188;24.160;2023-10-08T06:41:59;99742.50;;;19.57;43.86
26531;BME280;14201;43.188;24.160;2023-10-08T06:44:25;99748.03;;;19.88;43.68
26531;BME280;14201;43.188;24.160;2023-10-08T06:46:53;99748.19;;;20.18;43.11
26531;BME280;14201;43.188;24.160;2023-10-08T06:49:21;99745.69;;;20.52;42.27
26531;BME280;14201;43.188;24.160;2023-10-08T06:51:50;99749.34;;;20.97;40.77
26531;BME280;14201;43.188;24.160;2023-10-08T06:54:16;99735.28;;;21.31;38.54
26531;BME280;14201;43.188;24.160;2023-10-08T06:56:43;99737.03;;;21.67;36.87
26531;BME280;14201;43.188;24.160;2023-10-08T06:59:13;99741.38;;;22.03;36.98
26531;BME280;14201;43.188;24.160;2023-10-08T07:01:38;99747.56;;;22.18;36.27
26531;BME280;14201;43.188;24.160;2023-10-08T07:04:04;99733.31;;;22.42;35.41
26531;BME280;14201;43.188;24.160;2023-10-08T07:06:31;99732.31;;;22.71;36.08
26531;BME280;14201;43.188;24.160;2023-10-08T07:09:00;99726.69;;;23.18;34.58
26531;BME280;14201;43.188;24.160;2023-10-08T07:11:33;99729.00;;;23.62;33.44
26531;BME280;14201;43.188;24.160;2023-10-08T07:14:05;99729.41;;;24.10;32.16
26531;BME280;14201;43.188;24.160;2023-10-08T07:16:33;99728.59;;;24.74;31.67
26531;BME280;14201;43.188;24.160;2023-10-08T07:19:00;99716.22;;;25.31;29.76
26531;BME280;14201;43.188;24.160;2023-10-08T07:21:31;99708.09;;;25.39;29.71
26531;BME280;14201;43.188;24.160;2023-10-08T07:24:13;99703.44;;;24.95;29.59
26531;BME280;14201;43.188;24.160;2023-10-08T07:26:47;99720.13;;;24.43;30.57
26531;BME280;14201;43.188;24.160;2023-10-08T07:29:14;99719.38;;;24.33;30.91
26531;BME280;14201;43.188;24.160;2023-10-08T07:31:43;99713.38;;;24.16;30.49
26531;BME280;14201;43.188;24.160;2023-10-08T07:34:15;99712.66;;;24.00;30.75
26531;BME280;14201;43.188;24.160;2023-10-08T07:36:46;99716.22;;;23.97;31.05
26531;BME280;14201;43.188;24.160;2023-10-08T07:39:15;99719.72;;;24.04;30.96
26531;BME280;14201;43.188;24.160;2023-10-08T07:41:56;99713.41;;;24.11;30.99
26531;BME280;14201;43.188;24.160;2023-10-08T07:44:22;99719.44;;;24.27;30.70
26531;BME280;14201;43.188;24.160;2023-10-08T07:46:52;99720.25;;;24.31;30.68
26531;BME280;14201;43.188;24.160;2023-10-08T07:49:20;99712.53;;;24.11;30.97
26531;BME280;14201;43.188;24.160;2023-10-08T07:51:48;99714.53;;;23.90;31.23
26531;BME280;14201;43.188;24.160;2023-10-08T07:54:23;99717.06;;;24.01;31.14
26531;BME280;14201;43.188;24.160;2023-10-08T07:56:57;99705.13;;;24.34;31.08
26531;BME280;14201;43.188;24.160;2023-10-08T07:59:38;99707.91;;;24.92;31.05
26531;BME280;14201;43.188;24.160;2023-10-08T08:02:07;99699.97;;;25.45;29.89
26531;BME280;14201;43.188;24.160;2023-10-08T08:04:40;99701.09;;;25.81;28.35
26531;BME280;14201;43.188;24.160;2023-10-08T08:07:07;99696.53;;;26.33;28.04
26531;BME280;14201;43.188;24.160;2023-10-08T08:09:33;99685.72;;;26.80;27.27
26531;BME280;14201;43.188;24.160;2023-10-08T08:12:06;99693.84;;;27.13;26.80
26531;BME280;14201;43.188;24.160;2023-10-08T08:14:37;99686.00;;;27.05;26.98
26531;BME280;14201;43.188;24.160;2023-10-08T08:17:06;99679.72;;;26.70;27.63
26531;BME280;14201;43.188;24.160;2023-10-08T08:19:43;99672.34;;;26.80;27.59
26531;BME280;14201;43.188;24.160;2023-10-08T08:22:20;99670.53;;;27.18;26.10
26531;BME280;14201;43.188;24.160;2023-10-08T08:24:56;99674.81;;;27.61;25.97
26531;BME280;14201;43.188;24.160;2023-10-08T08:27:28;99673.06;;;27.93;26.41
26531;BME280;14201;43.188;24.160;2023-10-08T08:30:00;99665.19;;;28.18;26.12
26531;BME280;14201;43.188;24.160;2023-10-08T08:32:41;99670.13;;;28.32;25.18
26531;BME280;14201;43.188;24.160;2023-10-08T08:35:11;99666.69;;;28.26;25.50
26531;BME280;14201;43.188;24.160;2023-10-08T08:37:37;99666.97;;;28.47;24.64
26531;BME280;14201;43.188;24.160;2023-10-08T08:40:06;99659.06;;;29.00;25.33
26531;BME280;14201;43.188;24.160;2023-10-08T08:42:35;99660.72;;;29.31;24.82
26531;BME280;14201;43.188;24.160;2023-10-08T08:45:01;99662.88;;;29.72;23.91
26531;BME280;14201;43.188;24.160;2023-10-08T08:47:34;99658.47;;;29.96;23.41
26531;BME280;14201;43.188;24.160;2023-10-08T08:50:00;99662.53;;;30.31;23.13
26531;BME280;14201;43.188;24.160;2023-10-08T08:52:33;99656.34;;;30.51;23.20
26531;BME280;14201;43.188;24.160;2023-10-08T08:54:58;99649.78;;;30.80;22.79
26531;BME280;14201;43.188;24.160;2023-10-08T08:57:25;99644.97;;;30.45;21.77
26531;BME280;14201;43.188;24.160;2023-10-08T08:59:53;99636.81;;;30.48;22.25
26531;BME280;14201;43.188;24.160;2023-10-08T09:02:21;99647.97;;;30.59;22.86
26531;BME280;14201;43.188;24.160;2023-10-08T09:04:48;99645.69;;;30.94;22.40
26531;BME280;14201;43.188;24.160;2023-10-08T09:07:14;99644.47;;;31.23;21.69
26531;BME280;14201;43.188;24.160;2023-10-08T09:09:40;99644.25;;;31.50;21.32
26531;BME280;14201;43.188;24.160;2023-10-08T09:12:06;99645.38;;;31.24;21.30
26531;BME280;14201;43.188;24.160;2023-10-08T09:14:36;99636.47;;;31.42;21.16
26531;BME280;14201;43.188;24.160;2023-10-08T09:17:03;99644.56;;;31.42;21.40
26531;BME280;14201;43.188;24.160;2023-10-08T09:19:30;99646.66;;;31.35;20.77
26531;BME280;14201;43.188;24.160;2023-10-08T09:22:04;99646.19;;;30.81;21.34
26531;BME280;14201;43.188;24.160;2023-10-08T09:24:31;99650.56;;;30.84;21.38
26531;BME280;14201;43.188;24.160;2023-10-08T09:26:58;99644.03;;;30.91;22.18
26531;BME280;14201;43.188;24.160;2023-10-08T09:29:24;99633.31;;;31.32;21.88
26531;BME280;14201;43.188;24.160;2023-10-08T09:31:53;99634.28;;;31.09;20.99
26531;BME280;14201;43.188;24.160;2023-10-08T09:34:21;99625.06;;;30.27;21.58
26531;BME280;14201;43.188;24.160;2023-10-08T09:36:46;99629.41;;;30.53;22.07
26531;BME280;14201;43.188;24.160;2023-10-08T09:39:11;99627.59;;;30.53;21.96
26531;BME280;14201;43.188;24.160;2023-10-08T09:41:46;99625.16;;;30.00;21.98
26531;BME280;14201;43.188;24.160;2023-10-08T09:44:12;99620.28;;;30.35;22.12
26531;BME280;14201;43.188;24.160;2023-10-08T09:46:37;99619.56;;;30.06;22.04
26531;BME280;14201;43.188;24.160;2023-10-08T09:49:05;99611.16;;;29.92;22.37
26531;BME280;14201;43.188;24.160;2023-10-08T09:51:33;99604.91;;;30.15;22.54
26531;BME280;14201;43.188;24.160;2023-10-08T09:54:10;99591.53;;;30.13;22.26
26531;BME280;14201;43.188;24.160;2023-10-08T09:56:39;99595.22;;;30.34;22.48
26531;BME280;14201;43.188;24.160;2023-10-08T09:59:05;99594.41;;;30.54;22.32
26531;BME280;14201;43.188;24.160;2023-10-08T10:01:32;99589.28;;;30.48;22.42
26531;BME280;14201;43.188;24.160;2023-10-08T10:03:58;99591.97;;;30.25;22.57
26531;BME280;14201;43.188;24.160;2023-10-08T10:06:25;99588.25;;;30.29;23.37
26531;BME280;14201;43.188;24.160;2023-10-08T10:08:50;99583.13;;;30.67;22.44
26531;BME280;14201;43.188;24.160;2023-10-08T10:11:16;99578.13;;;30.35;22.76
26531;BME280;14201;43.188;24.160;2023-10-08T10:13:42;99572.72;;;30.13;22.90
26531;BME280;14201;43.188;24.160;2023-10-08T10:16:12;99572.94;;;29.83;23.42
26531;BME280;14201;43.188;24.160;2023-10-08T10:18:38;99573.84;;;30.30;23.58
26531;BME280;14201;43.188;24.160;2023-10-08T10:21:25;99571.09;;;30.09;23.46
26531;BME280;14201;43.188;24.160;2023-10-08T10:23:51;99564.59;;;29.91;23.74
26531;BME280;14201;43.188;24.160;2023-10-08T10:31:34;99552.66;;;29.76;24.61
26531;BME280;14201;43.188;24.160;2023-10-08T10:34:04;99548.94;;;29.55;25.07
26531;BME280;14201;43.188;24.160;2023-10-08T10:36:29;99541.69;;;30.04;24.27
26531;BME280;14201;43.188;24.160;2023-10-08T10:38:56;99545.09;;;30.76;24.30
26531;BME280;14201;43.188;24.160;2023-10-08T10:41:22;99539.88;;;31.34;24.42
26531;BME280;14201;43.188;24.160;2023-10-08T10:43:48;99541.97;;;31.88;24.29
26531;BME280;14201;43.188;24.160;2023-10-08T10:46:18;99533.81;;;32.08;24.35
26531;BME280;14201;43.188;24.160;2023-10-08T10:48:58;99528.66;;;32.04;23.97
26531;BME280;14201;43.188;24.160;2023-10-08T10:51:50;99527.47;;;31.90;24.47
26531;BME280;14201;43.188;24.160;2023-10-08T10:54:25;99518.16;;;31.78;24.83
26531;BME280;14201;43.188;24.160;2023-10-08T10:56:52;99530.16;;;31.52;24.73
26531;BME280;14201;43.188;24.160;2023-10-08T10:59:38;99523.78;;;31.14;24.85
26531;BME280;14201;43.188;24.160;2023-10-08T11:02:04;99520.00;;;30.97;25.21
26531;BME280;14201;43.188;24.160;2023-10-08T11:04:36;99525.66;;;30.91;25.22
26531;BME280;14201;43.188;24.160;2023-10-08T11:07:19;99521.06;;;30.93;25.16
26531;BME280;14201;43.188;24.160;2023-10-08T11:09:48;99514.06;;;30.89;25.06
26531;BME280;14201;43.188;24.160;2023-10-08T11:12:14;99513.97;;;30.92;25.62
26531;BME280;14201;43.188;24.160;2023-10-08T11:14:43;99501.03;;;31.00;25.24
26531;BME280;14201;43.188;24.160;2023-10-08T11:17:18;99502.66;;;31.05;25.17
26531;BME280;14201;43.188;24.160;2023-10-08T11:19:47;99503.31;;;31.10;24.77
26531;BME280;14201;43.188;24.160;2023-10-08T11:22:13;99500.63;;;31.10;25.22
26531;BME280;14201;43.188;24.160;2023-10-08T11:24:42;99502.50;;;31.08;24.44
26531;BME280;14201;43.188;24.160;2023-10-08T11:27:13;99503.38;;;30.45;25.13
26531;BME280;14201;43.188;24.160;2023-10-08T11:29:43;99501.09;;;30.56;25.06
26531;BME280;14201;43.188;24.160;2023-10-08T11:32:10;99504.31;;;30.44;25.01
26531;BME280;14201;43.188;24.160;2023-10-08T11:34:38;99497.72;;;30.51;25.31
26531;BME280;14201;43.188;24.160;2023-10-08T11:37:04;99490.94;;;30.42;25.60
26531;BME280;14201;43.188;24.160;2023-10-08T11:39:45;99484.53;;;30.45;25.69
26531;BME280;14201;43.188;24.160;2023-10-08T11:42:10;99488.25;;;30.42;25.78
26531;BME280;14201;43.188;24.160;2023-10-08T11:45:02;99484.50;;;30.25;25.76
26531;BME280;14201;43.188;24.160;2023-10-08T11:47:43;99480.28;;;30.17;25.89
26531;BME280;14201;43.188;24.160;2023-10-08T11:50:10;99487.66;;;30.12;25.78
26531;BME280;14201;43.188;24.160;2023-10-08T11:52:36;99486.69;;;30.15;25.82
26531;BME280;14201;43.188;24.160;2023-10-08T11:55:07;99477.63;;;29.95;26.27
26531;BME280;14201;43.188;24.160;2023-10-08T11:57:32;99483.34;;;30.08;26.09
26531;BME280;14201;43.188;24.160;2023-10-08T12:00:03;99477.34;;;30.23;25.84
26531;BME280;14201;43.188;24.160;2023-10-08T12:02:47;99471.84;;;30.04;25.89
26531;BME280;14201;43.188;24.160;2023-10-08T12:05:12;99483.34;;;30.08;26.23
26531;BME280;14201;43.188;24.160;2023-10-08T12:07:46;99468.72;;;30.15;26.37
26531;BME280;14201;43.188;24.160;2023-10-08T12:10:12;99473.59;;;30.06;26.24
26531;BME280;14201;43.188;24.160;2023-10-08T12:12:38;99465.91;;;29.96;25.90
26531;BME280;14201;43.188;24.160;2023-10-08T12:15:04;99459.44;;;29.31;26.70
26531;BME280;14201;43.188;24.160;2023-10-08T12:17:32;99463.81;;;29.35;26.89
26531;BME280;14201;43.188;24.160;2023-10-08T12:20:05;99461.97;;;29.36;26.77
26531;BME280;14201;43.188;24.160;2023-10-08T12:22:48;99452.94;;;29.38;26.61
26531;BME280;14201;43.188;24.160;2023-10-08T12:25:13;99457.06;;;29.23;27.00
26531;BME280;14201;43.188;24.160;2023-10-08T12:27:39;99450.28;;;29.37;26.99
26531;BME280;14201;43.188;24.160;2023-10-08T12:30:04;99456.28;;;29.45;26.41
26531;BME280;14201;43.188;24.160;2023-10-08T12:32:35;99447.28;;;29.46;26.79
26531;BME280;14201;43.188;24.160;2023-10-08T12:35:03;99451.63;;;29.49;26.42
26531;BME280;14201;43.188;24.160;2023-10-08T12:37:28;99438.91;;;29.77;26.44
26531;BME280;14201;43.188;24.160;2023-10-08T12:39:55;99448.56;;;30.05;26.12
26531;BME280;14201;43.188;24.160;2023-10-08T12:42:37;99444.22;;;30.23;26.11
26531;BME280;14201;43.188;24.160;2023-10-08T12:45:04;99446.66;;;30.29;26.25
26531;BME280;14201;43.188;24.160;2023-10-08T12:47:37;99445.94;;;30.48;26.11
26531;BME280;14201;43.188;24.160;2023-10-08T12:50:03;99434.94;;;30.73;25.92
26531;BME280;14201;43.188;24.160;2023-10-08T12:52:32;99433.75;;;30.80;25.47
26531;BME280;14201;43.188;24.160;2023-10-08T12:55:00;99422.88;;;30.83;25.60
26531;BME280;14201;43.188;24.160;2023-10-08T12:57:29;99437.66;;;30.93;25.67
26531;BME280;14201;43.188;24.160;2023-10-08T12:59:58;99433.00;;;31.17;25.55
26531;BME280;14201;43.188;24.160;2023-10-08T13:02:24;99439.44;;;31.13;24.45
26531;BME280;14201;43.188;24.160;2023-10-08T13:04:53;99436.88;;;30.91;24.54
26531;BME280;14201;43.188;24.160;2023-10-08T13:07:20;99440.75;;;30.64;25.07
26531;BME280;14201;43.188;24.160;2023-10-08T13:09:47;99434.34;;;30.46;25.21
26531;BME280;14201;43.188;24.160;2023-10-08T13:12:12;99443.44;;;30.21;25.63